Terminal Aerodrome Forecast
Issued by NWS San Angelo, TX

Home | Current Version | Previous Version | Text Only | Print | Product List | Glossary On
Versions: 1 2 3 4 5 6 7 8 9 10 11 12
000
FTUS44 KSJT 301700 RRA
TAFABI
TAF
KABI 301742Z 3018/3118 09010KT P6SM OVC070
     FM310600 14010KT P6SM OVC025
     FM310900 14011KT 5SM -RA BR OVC015
     FM311300 12011KT 4SM RA BR OVC008
     FM311500 12012KT 2SM RA BR OVC004=

USA.gov is the U.S. government's official web portal to all federal, state and local government web resources and services.